Nearby METAR Reports

 

KTEB - Teterboro, New Jersey, USA
Distance from station: ENE 2mi, 4km
Updated: 07/16/2018 5:51am
Clear
Clear
 Wind from calm
Wind: Calm
Temperature: 72°F , 22°C
Dew Point: 70°F , 21°C
Humidity: 94%
Barometer: 29.96 inHg , 1014.6 hPa
Clouds: Clear
Visibility: 10 miles , 16 km
2018/07/16 09:51 KTEB 160951Z 00000KT 10SM CLR 22/21 A2996 RMK AO2 SLP145 T02220211 $
KNYC - Nyc/Central Park, New York, USA
Distance from station: SE 8mi, 13km
Updated: 07/16/2018 5:51am
Clear
Clear
 Wind from calm
Wind: Calm
Temperature: 75°F , 24°C
Dew Point: 70°F , 21°C
Humidity: 83%
Barometer: 30.00 inHg , 1015.9 hPa
Clouds: Clear
Visibility: 10 miles , 16 km
2018/07/16 09:51 KNYC 160951Z AUTO 00000KT 10SM CLR 24/21 A3000 RMK AO2 SLP149 T02440206 $
 
KCDW - Caldwell, New Jersey, USA
Distance from station: WNW 10mi, 17km
Updated: 07/16/2018 5:53am
Clear
Clear
 Wind from calm
Wind: Calm
Temperature: 72°F , 22°C
Dew Point: 70°F , 21°C
Humidity: 94%
Barometer: 29.99 inHg , 1015.6 hPa
Clouds: Clear
Visibility: 10 miles , 16 km
2018/07/16 09:53 KCDW 160953Z AUTO 00000KT 10SM CLR 22/21 A2999 RMK AO2 SLP157 T02220211 $
KLGA - Nyc/La Guardia, New York, USA
Distance from station: ESE 12mi, 19km
Updated: 07/16/2018 5:51am
Few Clouds
Few Clouds
 Wind from SSW
Wind: SSW 3 mph , 6 km/h
Temperature: 79°F , 26°C
Dew Point: 70°F , 21°C
Humidity: 74%
Barometer: 29.96 inHg , 1014.6 hPa
Clouds: Few Clouds
Visibility: 10 miles , 16 km
Cloud details: Few Clouds 25000 ft
2018/07/16 09:51 KLGA 160951Z 21003KT 10SM FEW250 26/21 A2996 RMK AO2 SLP147 T02610206 $
 
KEWR - Newark, New Jersey, USA
Distance from station: SSW 12mi, 20km
Updated: 07/16/2018 5:51am
Few Clouds
Few Clouds
 Wind from SSW
Wind: SSW 5 mph , 7 km/h
Temperature: 73°F , 23°C
Dew Point: 70°F , 21°C
Humidity: 89%
Barometer: 29.97 inHg , 1014.9 hPa
Clouds: Few Clouds
Visibility: 10 miles , 16 km
Cloud details: Few Clouds 15000 ft
Few Clouds 25000 ft
2018/07/16 09:51 KEWR 160951Z 21004KT 10SM FEW150 FEW250 23/21 A2997 RMK AO2 SLP148 T02280211 $
KMMU - Morristown Muni, New Jersey, USA
Distance from station: WSW 18mi, 29km
Updated: 07/16/2018 6:15am
Fog, Overcast
Fog, Overcast
 Wind from calm
Wind: Calm
Temperature: 66°F , 19°C
Dew Point: 66°F , 19°C
Humidity: 100%
Barometer: 29.99 inHg , 1015.6 hPa
Summary: Fog
Clouds: Overcast
Visibility: 1/4 mile , 0.4 km
Cloud details: Overcast 300 ft
2018/07/16 10:15 KMMU 161015Z AUTO 00000KT 1/4SM FG OVC003 19/19 A2999 RMK AO2
 
KJFK - Nyc/Jfk Arpt, New York, USA
Distance from station: SE 23mi, 36km
Updated: 07/16/2018 5:51am
Few Clouds
Few Clouds
 Wind from SW
Wind: SW 7 mph , 11 km/h
Temperature: 73°F , 23°C
Dew Point: 73°F , 23°C
Humidity: 100%
Barometer: 29.98 inHg , 1015.2 hPa
Clouds: Few Clouds
Visibility: 7 miles , 11 km
Cloud details: Few Clouds 25000 ft
2018/07/16 09:51 KJFK 160951Z 23006KT 7SM FEW250 23/23 A2998 RMK AO2 SLP152 T02280228 $
KHPN - White Plains, New York, USA
Distance from station: NE 25mi, 40km
Updated: 07/16/2018 5:56am
Clear
Clear
 Wind from calm
Wind: Calm
Temperature: 72°F , 22°C
Dew Point: 70°F , 21°C
Humidity: 94%
Barometer: 29.98 inHg , 1015.2 hPa
Clouds: Clear
Visibility: 10 miles , 16 km
2018/07/16 09:56 KHPN 160956Z 00000KT 10SM CLR 22/21 A2998 RMK AO2 SLP145 T02170206
 
KSMQ - Somerville, New Jersey, USA
Distance from station: WSW 34mi, 55km
Updated: 07/16/2018 5:53am
Clear
Clear
 Wind from calm
Wind: Calm
Temperature: 66°F , 19°C
Dew Point: 66°F , 19°C
Humidity: 100%
Barometer: 29.97 inHg , 1014.9 hPa
Clouds: Clear
Visibility: 10 miles , 16 km
2018/07/16 09:53 KSMQ 160953Z AUTO 00000KT 10SM CLR 19/19 A2997 RMK AO2 SLP148 T01890189
K12N - Andover, New Jersey, USA
Distance from station: WNW 36mi, 57km
Updated: 07/16/2018 5:54am

 Wind from calm
Wind: Calm
Temperature: 66°F , 19°C
Dew Point: 66°F , 19°C
Humidity: 100%
Barometer: 30.01 inHg , 1016.3 hPa
2018/07/16 09:54 K12N 160954Z AUTO 00000KT 19/19 A3001 RMK AO1 SLP152 T01940194
 
KFRG - Farmingdale, New York, USA
Distance from station: ESE 36mi, 58km
Updated: 07/16/2018 5:53am
Clear
Clear
 Wind from calm
Wind: Calm
Temperature: 72°F , 22°C
Dew Point: 70°F , 21°C
Humidity: 94%
Barometer: 29.98 inHg , 1015.2 hPa
Clouds: Clear
Visibility: 7 miles , 11 km
2018/07/16 09:53 KFRG 160953Z AUTO 00000KT 7SM CLR 22/21 A2998 RMK AO2 SLP150 T02170211
KFWN - Sussex, New Jersey, USA
Distance from station: NW 37mi, 60km
Updated: 07/16/2018 6:19am
Mist, Overcast
Mist, Overcast
 Wind from SW
Wind: SW 3 mph , 6 km/h
Temperature: 66°F , 19°C
Dew Point: 66°F , 19°C
Humidity: 100%
Barometer: 30.00 inHg , 1015.9 hPa
Summary: Mist
Clouds: Overcast
Visibility: 1 3/4 miles , 2.8 km
Cloud details: Overcast 200 ft
2018/07/16 10:19 KFWN 161019Z AUTO 23003KT 1 3/4SM BR OVC002 19/19 A3000 RMK AO2 T01940194
 
KSWF - Newburgh/Stewart, New York, USA
Distance from station: 0 45mi, 72km
Updated: 07/16/2018 5:45am
Clear
Clear
 Wind from calm
Wind: Calm
Temperature: 70°F , 21°C
Dew Point: 70°F , 21°C
Humidity: 100%
Barometer: 29.99 inHg , 1015.6 hPa
Clouds: Clear
Visibility: 10 miles , 16 km
2018/07/16 09:45 KSWF 160945Z 00000KT 10SM SKC 21/21 A2999
KMGJ - Montgomery, New York, USA
Distance from station: NNW 47mi, 75km
Updated: 07/16/2018 6:02am
Mist, Few clouds
Mist, Few clouds
 Wind from calm
Wind: Calm
Temperature: 68°F , 20°C
Dew Point: 66°F , 19°C
Humidity: 94%
Barometer: 29.98 inHg , 1015.2 hPa
Summary: Mist
Clouds: Few Clouds
Visibility: 4 miles , 6 km
Cloud details: Few Clouds 300 ft
2018/07/16 10:02 KMGJ 161002Z AUTO 00000KT 4SM BR FEW003 20/19 A2998 RMK AO2 T02000194 $
 
KBLM - Belmar/Farmdale, New Jersey, USA
Distance from station: S 47mi, 76km
Updated: 07/16/2018 5:56am
Clear
Clear
 Wind from SW
Wind: SW 6 mph , 9 km/h
Temperature: 72°F , 22°C
Dew Point: 70°F , 21°C
Humidity: 94%
Barometer: 30.00 inHg , 1015.9 hPa
Clouds: Clear
Visibility: 7 miles , 11 km
2018/07/16 09:56 KBLM 160956Z AUTO 23005KT 7SM CLR 22/21 A3000 RMK AO2 SLP161 T02170206
KDXR - Danbury, Connecticut, USA
Distance from station: NE 47mi, 76km
Updated: 07/16/2018 5:53am
Clear
Clear
 Wind from calm
Wind: Calm
Temperature: 66°F , 19°C
Dew Point: 66°F , 19°C
Humidity: 100%
Barometer: 30.00 inHg , 1015.9 hPa
Clouds: Clear
Visibility: 8 miles , 13 km
2018/07/16 09:53 KDXR 160953Z AUTO 00000KT 8SM CLR 19/19 A3000 RMK AO2 SLP155 T01940194
 
KISP - Islip, New York, USA
Distance from station: E 52mi, 83km
Updated: 07/16/2018 5:56am
Mist, Few clouds
Mist, Few clouds
 Wind from calm
Wind: Calm
Temperature: 72°F , 22°C
Dew Point: 72°F , 22°C
Humidity: 100%
Barometer: 29.97 inHg , 1014.9 hPa
Summary: Mist
Clouds: Few Clouds
Visibility: 5 miles , 8 km
Cloud details: Few Clouds 25000 ft
2018/07/16 09:56 KISP 160956Z 00000KT 5SM BR FEW250 22/22 A2997 RMK AO2 SLP148 T02220222
KBDR - Bridgeport, Connecticut, USA
Distance from station: ENE 54mi, 87km
Updated: 07/16/2018 5:52am
Mist, Clear
Mist, Clear
 Wind from calm
Wind: Calm
Temperature: 72°F , 22°C
Dew Point: 70°F , 21°C
Humidity: 94%
Barometer: 29.97 inHg , 1014.9 hPa
Summary: Mist
Clouds: Clear
Visibility: 5 miles , 8 km
2018/07/16 09:52 KBDR 160952Z AUTO 00000KT 5SM BR CLR 22/21 A2997 RMK AO2 SLP148 T02220206
 
KTTN - Trenton, New Jersey, USA
Distance from station: SW 55mi, 88km
Updated: 07/16/2018 5:53am
Mist, Clear
Mist, Clear
 Wind from WSW
Wind: WSW 3 mph , 6 km/h
Temperature: 73°F , 23°C
Dew Point: 70°F , 21°C
Humidity: 89%
Barometer: 29.98 inHg , 1015.2 hPa
Summary: Mist
Clouds: Clear
Visibility: 5 miles , 8 km
2018/07/16 09:53 KTTN 160953Z 24003KT 5SM BR CLR 23/21 A2998 RMK AO2 SLP145 T02280211
KPOU - Poughkeepsie, New York, USA
Distance from station: N 55mi, 89km
Updated: 07/16/2018 5:53am
Mist, Clear
Mist, Clear
 Wind from calm
Wind: Calm
Temperature: 68°F , 20°C
Dew Point: 66°F , 19°C
Humidity: 94%
Barometer: 29.97 inHg , 1014.9 hPa
Summary: Mist
Clouds: Clear
Visibility: 5 miles , 8 km
2018/07/16 09:53 KPOU 160953Z 00000KT 5SM BR CLR 20/19 A2997 RMK AO2 SLP143 T02000194
 
KNEL - Lakehurst Nas, New Jersey, USA
Distance from station: SSW 59mi, 95km
Updated: 07/16/2018 6:00am
Clear
Clear
 
Barometer: 29.99 inHg , 1015.6 hPa
Clouds: Clear
Visibility: 4 miles , 6 km
2018/07/16 10:00 KNEL 161000Z AUTO 4SM CLR A2999 RMK AO2 SLPNO PNO
KWRI - Wrightst/Mcguire, New Jersey, USA
Distance from station: SSW 63mi, 102km
Updated: 07/16/2018 6:06am
Mist, Clear
Mist, Clear
 Wind from WSW
Wind: WSW 3 mph , 6 km/h
Temperature: 70°F , 21°C
Dew Point: 70°F , 21°C
Humidity: 100%
Barometer: 29.97 inHg , 1014.9 hPa
Summary: Mist
Clouds: Clear
Visibility: 3 miles , 5 km
2018/07/16 10:06 KWRI 161006Z AUTO 24003KT 3SM BR CLR 21/21 A2997 RMK AO2 SLP148 TSNO $
 
KHWV - Shirley, New York, USA
Distance from station: E 64mi, 103km
Updated: 07/16/2018 5:56am
Mist, Few clouds
Mist, Few clouds
 Wind from calm
Wind: Calm
Temperature: 72°F , 22°C
Dew Point: 72°F , 22°C
Humidity: 100%
Barometer: 29.98 inHg , 1015.2 hPa
Summary: Mist
Clouds: Few Clouds
Visibility: 5 miles , 8 km
Cloud details: Few Clouds 200 ft
2018/07/16 09:56 KHWV 160956Z AUTO 00000KT 5SM BR FEW002 22/22 A2998 RMK AO2 SLP151 T02220222
KMJX - Toms River, New Jersey, USA
Distance from station: S 64mi, 104km
Updated: 07/16/2018 5:56am
Clear
Clear
 Wind from calm
Wind: Calm
Temperature: 68°F , 20°C
Dew Point: 66°F , 19°C
Humidity: 94%
Barometer: 30.00 inHg , 1015.9 hPa
Clouds: Clear
Visibility: 7 miles , 11 km
2018/07/16 09:56 KMJX 160956Z AUTO 00000KT 7SM CLR 20/19 A3000 RMK AO2 SLP163 T02000189
 
KDYL - Doylestown, Pennsylvania, USA
Distance from station: SW 65mi, 104km
Updated: 07/16/2018 5:54am
Clear
Clear
 Wind from SW
Wind: SW 3 mph , 6 km/h
Temperature: 72°F , 22°C
Dew Point: 70°F , 21°C
Humidity: 94%
Barometer: 29.99 inHg , 1015.6 hPa
Clouds: Clear
Visibility: 7 miles , 11 km
2018/07/16 09:54 KDYL 160954Z AUTO 22003KT 7SM CLR 22/21 A2999 RMK AO2 SLP151 T02170211
KOXC - Oxford/Waterbury, Connecticut, USA
Distance from station: NE 65mi, 105km
Updated: 07/16/2018 5:51am
Clear
Clear
 Wind from calm
Wind: Calm
Temperature: 66°F , 19°C
Dew Point: 66°F , 19°C
Humidity: 100%
Barometer: 30.01 inHg , 1016.3 hPa
Clouds: Clear
Visibility: 8 miles , 13 km
2018/07/16 09:51 KOXC 160951Z AUTO 00000KT 8SM CLR 19/19 A3001 RMK AO2 SLP167 T01940189
 
KMSV - Monticello, New York, USA
Distance from station: NNW 69mi, 111km
Updated: 07/16/2018 5:56am

 
2018/07/16 09:56 KMSV 160956Z AUTO RMK AO2 SLPNO PWINO FZRANO RVRNO $
KHVN - New Haven/Tweed, Connecticut, USA
Distance from station: ENE 70mi, 112km
Updated: 07/16/2018 6:12am
Mist, Clear
Mist, Clear
 Wind from calm
Wind: Calm
Temperature: 72°F , 22°C
Dew Point: 70°F , 21°C
Humidity: 94%
Barometer: 29.98 inHg , 1015.2 hPa
Summary: Mist
Clouds: Clear
Visibility: 3 miles , 5 km
2018/07/16 10:12 KHVN 161012Z 00000KT 3SM BR CLR 22/21 A2998 RMK AO2 T02170206
 
KMPO - Mt. Pocono, Pennsylvania, USA
Distance from station: WNW 70mi, 113km
Updated: 07/16/2018 6:02am
Clear
Clear
 Wind from calm
Wind: Calm
Temperature: 64°F , 18°C
Dew Point: 64°F , 18°C
Humidity: 100%
Barometer: 30.05 inHg , 1017.6 hPa
Clouds: Clear
Visibility: 8 miles , 13 km
2018/07/16 10:02 KMPO 161002Z AUTO 00000KT 8SM CLR 18/18 A3005 RMK AO2 T01780178
KPNE - Philadelphia/Ne, Pennsylvania, USA
Distance from station: SW 72mi, 116km
Updated: 07/16/2018 5:54am
Mist, Clear
Mist, Clear
 Wind from calm
Wind: Calm
Temperature: 75°F , 24°C
Dew Point: 72°F , 22°C
Humidity: 89%
Barometer: 30.00 inHg , 1015.9 hPa
Summary: Mist
Clouds: Clear
Visibility: 5 miles , 8 km
2018/07/16 09:54 KPNE 160954Z 00000KT 5SM BR CLR 24/22 A3000 RMK AO2 SLP157 T02390217
 
KABE - Allentown, Pennsylvania, USA
Distance from station: W 73mi, 117km
Updated: 07/16/2018 6:04am
Mist, Clear
Mist, Clear
 Wind from calm
Wind: Calm
Temperature: 70°F , 21°C
Dew Point: 66°F , 19°C
Humidity: 88%
Barometer: 30.00 inHg , 1015.9 hPa
Summary: Mist
Clouds: Clear
Visibility: 4 miles , 6 km
2018/07/16 10:04 KABE 161004Z 00000KT 4SM BR CLR 21/19 A3000 RMK AO2 T02110194 $
KUKT - Quakertown Arp, Pennsylvania, USA
Distance from station: WSW 74mi, 119km
Updated: 07/16/2018 6:15am
Mist, Clear
Mist, Clear
 Wind from calm
Wind: Calm
Temperature: 70°F , 21°C
Dew Point: 70°F , 21°C
Humidity: 100%
Barometer: 30.01 inHg , 1016.3 hPa
Summary: Mist
Clouds: Clear
Visibility: 6 miles , 10 km
2018/07/16 10:15 KUKT 161015Z AUTO 00000KT 6SM BR CLR 21/21 A3001 RMK A01
 
KVAY - Mount Holly, New Jersey, USA
Distance from station: SSW 75mi, 120km
Updated: 07/16/2018 5:54am
Mist, Clear
Mist, Clear
 Wind from calm
Wind: Calm
Barometer: 29.98 inHg , 1015.2 hPa
Summary: Mist
Clouds: Clear
Visibility: 3 miles , 5 km
2018/07/16 09:54 KVAY 160954Z AUTO 00000KT 3SM BR CLR A2998 RMK AO2 SLPNO $
KXLL - Allentown Queen, Pennsylvania, USA
Distance from station: WSW 76mi, 122km
Updated: 07/16/2018 6:15am
Clear
Clear
 Wind from calm
Wind: Calm
Temperature: 72°F , 22°C
Dew Point: 70°F , 21°C
Humidity: 94%
Barometer: 30.02 inHg , 1016.6 hPa
Clouds: Clear
Visibility: 7 miles , 11 km
2018/07/16 10:15 KXLL 161015Z AUTO 00000KT 7SM CLR 22/21 A3002 RMK AO2
 
KFOK - Westhampton Beac, New York, USA
Distance from station: E 77mi, 124km
Updated: 07/16/2018 6:12am
Fog, Overcast
Fog, Overcast
 Wind from calm
Wind: Calm
Temperature: 66°F , 19°C
Dew Point: 64°F , 18°C
Humidity: 94%
Barometer: 30.00 inHg , 1015.9 hPa
Summary: Fog
Clouds: Overcast
Visibility: less than 1/4 mile , 0.4 km
Cloud details: Overcast 100 ft
2018/07/16 10:12 KFOK 161012Z AUTO 00000KT M1/4SM FG VV001 19/18 A3000 RMK AO2 T01940183
KLOM - Philly Wings F, Pennsylvania, USA
Distance from station: SW 79mi, 128km
Updated: 07/16/2018 6:15am
Overcast
Overcast
 Wind from calm
Wind: Calm
Temperature: 68°F , 20°C
Dew Point: 68°F , 20°C
Humidity: 100%
Barometer: 30.01 inHg , 1016.3 hPa
Clouds: Overcast
Visibility: 1 1/4 miles , 2 km
Cloud details: Overcast 700 ft
2018/07/16 10:15 KLOM 161015Z AUTO 00000KT 1 1/4SM VV007 20/20 A3001 RMK AO1
 
KMMK - Meriden, Connecticut, USA
Distance from station: NE 80mi, 128km
Updated: 07/16/2018 6:08am
Mist, Clear
Mist, Clear
 Wind from calm
Wind: Calm
Temperature: 66°F , 19°C
Dew Point: 66°F , 19°C
Humidity: 100%
Barometer: 29.98 inHg , 1015.2 hPa
Summary: Mist
Clouds: Clear
Visibility: 3 miles , 5 km
2018/07/16 10:08 KMMK 161008Z AUTO 00000KT 3SM BR CLR 19/19 A2998 RMK AO2 T01940189
KPTW - Pottstown, Pennsylvania, USA
Distance from station: WSW 88mi, 141km
Updated: 07/16/2018 6:16am
Mist, Few clouds
Mist, Few clouds
 Wind from calm
Wind: Calm
Temperature: 70°F , 21°C
Dew Point: 70°F , 21°C
Humidity: 100%
Barometer: 30.02 inHg , 1016.6 hPa
Summary: Mist
Clouds: Few Clouds
Visibility: 3 miles , 5 km
Cloud details: Few Clouds 4500 ft
Few Clouds 6500 ft
2018/07/16 10:16 KPTW 161016Z AUTO 00000KT 3SM BR FEW045 FEW065 21/21 A3002 RMK AO2 T02060206
 
KSNC - Chester, Connecticut, USA
Distance from station: ENE 90mi, 146km
Updated: 07/16/2018 6:15am
Mist, Clear
Mist, Clear
 Wind from calm
Wind: Calm
Temperature: 68°F , 20°C
Dew Point: 68°F , 20°C
Humidity: 100%
Barometer: 30.00 inHg , 1015.9 hPa
Summary: Mist
Clouds: Clear
Visibility: 5 miles , 8 km
2018/07/16 10:15 KSNC 161015Z AUTO 00000KT 5SM BR CLR 20/20 A3000 RMK AO2
KPHL - Philadelphia, Pennsylvania, USA
Distance from station: SW 91mi, 146km
Updated: 07/16/2018 6:21am
Mist, Clear
Mist, Clear
 Wind from SW
Wind: SW 8 mph , 13 km/h
Temperature: 73°F , 23°C
Dew Point: 72°F , 22°C
Humidity: 94%
Barometer: 29.99 inHg , 1015.6 hPa
Summary: Mist
Clouds: Clear
Visibility: 5 miles , 8 km
2018/07/16 10:21 KPHL 161021Z 23007KT 5SM BR CLR 23/22 A2999 RMK AO2 T02330222 $
 
KAVP - Avoca/Wilkes B., Pennsylvania, USA
Distance from station: WNW 91mi, 147km
Updated: 07/16/2018 5:54am
Mist, Clear
Mist, Clear
 Wind from ESE
Wind: ESE 3 mph , 6 km/h
Temperature: 70°F , 21°C
Dew Point: 68°F , 20°C
Humidity: 94%
Barometer: 30.01 inHg , 1016.3 hPa
Summary: Mist
Clouds: Clear
Visibility: 6 miles , 10 km
2018/07/16 09:54 KAVP 160954Z 12003KT 6SM BR CLR 21/20 A3001 RMK AO2 SLP152 T02060200
KHFD - Hartford/Brainar, Connecticut, USA
Distance from station: NE 96mi, 155km
Updated: 07/16/2018 5:53am
Mist, Clear
Mist, Clear
 Wind from calm
Wind: Calm
Temperature: 70°F , 21°C
Dew Point: 70°F , 21°C
Humidity: 100%
Barometer: 29.97 inHg , 1014.9 hPa
Summary: Mist
Clouds: Clear
Visibility: 6 miles , 10 km
2018/07/16 09:53 KHFD 160953Z 00000KT 6SM BR CLR 21/21 A2997 RMK AO2 SLP148 T02110206
 
KHTO - East Hampton, New York, USA
Distance from station: E 96mi, 155km
Updated: 07/16/2018 6:15am
Mist, Overcast
Mist, Overcast
 Wind from calm
Wind: Calm
Temperature: 64°F , 18°C
Dew Point: 64°F , 18°C
Humidity: 100%
Barometer: 29.99 inHg , 1015.6 hPa
Summary: Mist
Clouds: Overcast
Visibility: 4 miles , 6 km
Cloud details: Overcast 200 ft
2018/07/16 10:15 KHTO 161015Z AUTO 00000KT 4SM BR OVC002 18/18 A2999 RMK AO2 T01810176
KACY - Atlantic City, New Jersey, USA
Distance from station: SSW 99mi, 160km
Updated: 07/16/2018 5:54am
Clear
Clear
 Wind from calm
Wind: Calm
Temperature: 70°F , 21°C
Dew Point: 68°F , 20°C
Humidity: 94%
Barometer: 30.00 inHg , 1015.9 hPa
Clouds: Clear
Visibility: 8 miles , 13 km
2018/07/16 09:54 KACY 160954Z 00000KT 8SM CLR 21/20 A3000 RMK AO2 SLP158 T02110200